createdAt,value
2023-04-10T00:01:13.444Z,101103.20
2023-04-10T00:03:41.474Z,101100.08
2023-04-10T00:06:09.318Z,101101.77
2023-04-10T00:08:36.848Z,101099.68
2023-04-10T00:11:04.841Z,101100.17
2023-04-10T00:13:32.836Z,101099.63
2023-04-10T00:16:00.382Z,101101.31
2023-04-10T00:18:28.600Z,101101.13
2023-04-10T00:20:56.253Z,101102.65
2023-04-10T00:23:24.317Z,101101.06
2023-04-10T00:25:51.826Z,101103.11
2023-04-10T00:28:19.380Z,101106.88
2023-04-10T00:30:46.862Z,101103.55
2023-04-10T00:33:14.508Z,101103.36
2023-04-10T00:35:43.697Z,101103.35
2023-04-10T00:38:11.992Z,101105.56
2023-04-10T00:40:40.168Z,101105.36
2023-04-10T00:43:07.741Z,101106.02
2023-04-10T00:45:35.654Z,101105.81
2023-04-10T00:48:03.787Z,101103.70
2023-04-10T00:50:31.621Z,101106.96
2023-04-10T00:53:00.341Z,101105.20
2023-04-10T00:55:28.029Z,101106.38
2023-04-10T00:57:57.632Z,101106.53
2023-04-10T01:00:25.244Z,101104.95
2023-04-10T01:02:54.365Z,101109.07
2023-04-10T01:05:23.400Z,101112.46
2023-04-10T01:08:00.638Z,101109.65
2023-04-10T01:10:44.114Z,101110.83
2023-04-10T01:13:21.449Z,101109.40
2023-04-10T01:15:58.172Z,101109.89
2023-04-10T01:18:41.595Z,101105.38
2023-04-10T01:21:12.056Z,101098.94
2023-04-10T01:23:59.338Z,101098.21
2023-04-10T01:26:42.152Z,101101.63
2023-04-10T01:29:14.556Z,101101.41
2023-04-10T01:32:13.095Z,101105.16
2023-04-10T01:34:45.799Z,101103.58
2023-04-10T01:37:20.849Z,101102.69
2023-04-10T01:39:54.180Z,101104.53
2023-04-10T01:42:22.857Z,101104.83
2023-04-10T01:44:52.178Z,101103.23
2023-04-10T01:47:20.439Z,101100.64
2023-04-10T01:49:49.783Z,101105.45
2023-04-10T01:52:18.425Z,101102.98
2023-04-10T01:54:48.487Z,101105.54
2023-04-10T01:57:17.244Z,101103.98
2023-04-10T01:59:44.734Z,101104.29
2023-04-10T02:02:12.821Z,101102.89
2023-04-10T02:04:40.861Z,101104.05
2023-04-10T02:07:28.504Z,101105.70
2023-04-10T02:10:28.051Z,101105.49
2023-04-10T02:13:00.579Z,101108.03
2023-04-10T02:15:32.363Z,101108.84
2023-04-10T02:18:04.285Z,101110.52
2023-04-10T02:20:32.665Z,101113.05
2023-04-10T02:23:03.916Z,101110.05
2023-04-10T02:25:33.208Z,101106.58
2023-04-10T02:28:08.250Z,101107.06
2023-04-10T02:30:37.323Z,101107.54
2023-04-10T02:33:05.289Z,101108.02
2023-04-10T02:35:34.330Z,101108.17
2023-04-10T02:38:01.803Z,101111.90
2023-04-10T02:40:29.460Z,101112.88
2023-04-10T02:42:57.409Z,101116.65
2023-04-10T02:45:24.861Z,101113.83
2023-04-10T02:47:52.387Z,101116.02
2023-04-10T02:50:19.903Z,101113.05
2023-04-10T02:52:47.426Z,101114.41
2023-04-10T02:55:15.468Z,101119.52
2023-04-10T02:57:44.124Z,101121.55
2023-04-10T03:00:12.538Z,101119.30
2023-04-10T03:02:40.138Z,101121.87
2023-04-10T03:05:08.937Z,101124.41
2023-04-10T03:07:36.456Z,101125.61
2023-04-10T03:10:04.249Z,101126.44
2023-04-10T03:12:31.683Z,101126.09
2023-04-10T03:14:59.409Z,101123.64
2023-04-10T03:17:26.910Z,101126.02
2023-04-10T03:19:54.408Z,101126.86
2023-04-10T03:22:21.948Z,101125.26
2023-04-10T03:24:50.520Z,101125.74
2023-04-10T03:27:18.874Z,101128.98
2023-04-10T03:29:46.372Z,101131.38
2023-04-10T03:32:13.838Z,101130.29
2023-04-10T03:34:41.398Z,101129.40
2023-04-10T03:37:08.980Z,101129.90
2023-04-10T03:39:37.195Z,101131.92
2023-04-10T03:42:04.616Z,101131.40
2023-04-10T03:44:32.070Z,101131.38
2023-04-10T03:46:59.638Z,101134.27
2023-04-10T03:49:28.463Z,101138.40
2023-04-10T03:51:56.370Z,101135.98
2023-04-10T03:54:23.801Z,101140.25
2023-04-10T03:56:51.311Z,101136.45
2023-04-10T03:59:21.620Z,101136.94
2023-04-10T04:01:52.918Z,101139.98
2023-04-10T04:04:20.660Z,101139.81
2023-04-10T04:06:49.838Z,101143.05
2023-04-10T04:09:17.396Z,101145.60
2023-04-10T04:11:45.202Z,101145.07
2023-04-10T04:14:13.814Z,101146.23
2023-04-10T04:16:41.411Z,101142.45
2023-04-10T04:19:10.220Z,101144.34
2023-04-10T04:21:37.716Z,101147.10
2023-04-10T04:24:05.648Z,101153.29
2023-04-10T04:26:33.529Z,101150.02
2023-04-10T04:29:01.055Z,101152.64
2023-04-10T04:31:32.799Z,101150.93
2023-04-10T04:34:01.466Z,101155.78
2023-04-10T04:36:29.004Z,101159.44
2023-04-10T04:38:56.526Z,101158.96
2023-04-10T04:41:25.161Z,101162.27
2023-04-10T04:43:53.764Z,101167.33
2023-04-10T04:46:21.809Z,101168.23
2023-04-10T04:48:49.379Z,101172.43
2023-04-10T04:51:16.844Z,101171.27
2023-04-10T04:53:44.408Z,101166.86
2023-04-10T04:56:12.070Z,101165.89
2023-04-10T04:58:39.546Z,101167.15
2023-04-10T05:01:08.710Z,101170.14
2023-04-10T05:03:39.436Z,101172.45
2023-04-10T05:06:07.508Z,101171.49
2023-04-10T05:08:35.451Z,101173.48
2023-04-10T05:11:03.024Z,101175.44
2023-04-10T05:13:31.428Z,101174.18
2023-04-10T05:15:58.931Z,101173.07
2023-04-10T05:18:26.447Z,101170.42
2023-04-10T05:20:54.009Z,101175.14
2023-04-10T05:23:21.466Z,101176.79
2023-04-10T05:25:49.010Z,101178.63
2023-04-10T05:28:16.534Z,101184.43
2023-04-10T05:30:44.089Z,101188.14
2023-04-10T05:33:12.022Z,101193.94
2023-04-10T05:35:40.671Z,101195.41
2023-04-10T05:38:08.339Z,101197.08
2023-04-10T05:40:35.808Z,101193.39
2023-04-10T05:43:03.394Z,101195.40
2023-04-10T05:45:31.092Z,101194.98
2023-04-10T05:47:58.635Z,101199.75
2023-04-10T05:50:26.387Z,101195.55
2023-04-10T05:52:54.912Z,101197.39
2023-04-10T05:55:22.366Z,101200.60
2023-04-10T05:57:52.482Z,101201.89
2023-04-10T06:00:20.032Z,101204.56
2023-04-10T06:02:47.623Z,101201.70
2023-04-10T06:05:15.574Z,101205.60
2023-04-10T06:07:43.038Z,101200.14
2023-04-10T06:10:10.695Z,101198.84
2023-04-10T06:12:38.743Z,101199.09
2023-04-10T06:15:07.919Z,101198.82
2023-04-10T06:17:35.502Z,101198.02
2023-04-10T06:20:04.677Z,101192.89
2023-04-10T06:22:32.692Z,101190.03
2023-04-10T06:25:00.251Z,101185.95
2023-04-10T06:27:30.020Z,101186.01
2023-04-10T06:29:58.142Z,101186.77
2023-04-10T06:32:25.748Z,101192.53
2023-04-10T06:34:53.312Z,101189.29
2023-04-10T06:37:27.484Z,101192.27
2023-04-10T06:40:11.702Z,101193.36
2023-04-10T06:42:39.332Z,101192.21
2023-04-10T06:45:07.802Z,101193.29
2023-04-10T06:47:35.562Z,101199.38
2023-04-10T06:50:03.363Z,101198.55
2023-04-10T06:52:32.086Z,101199.29
2023-04-10T06:54:59.878Z,101200.53
2023-04-10T06:57:28.766Z,101198.66
2023-04-10T06:59:56.300Z,101200.25
2023-04-10T07:02:23.862Z,101202.00
2023-04-10T07:04:51.663Z,101202.05
2023-04-10T07:07:19.386Z,101201.22
2023-04-10T07:09:47.005Z,101198.98
2023-04-10T07:12:14.496Z,101194.98
2023-04-10T07:14:43.085Z,101194.31
2023-04-10T07:17:10.626Z,101187.38
2023-04-10T07:19:38.240Z,101185.64
2023-04-10T07:22:07.224Z,101183.38
2023-04-10T07:24:34.852Z,101183.54
2023-04-10T07:27:03.473Z,101185.77
2023-04-10T07:29:31.283Z,101179.51
2023-04-10T07:31:59.009Z,101184.86
2023-04-10T07:34:26.828Z,101184.82
2023-04-10T07:36:54.446Z,101187.39
2023-04-10T07:39:22.014Z,101187.67
2023-04-10T07:41:49.494Z,101189.88
2023-04-10T07:44:17.529Z,101192.41
2023-04-10T07:46:45.001Z,101191.31
2023-04-10T07:49:12.535Z,101189.14
2023-04-10T07:51:40.207Z,101191.99
2023-04-10T07:54:07.674Z,101190.50
2023-04-10T07:56:36.806Z,101181.70
2023-04-10T07:59:06.166Z,101179.31
2023-04-10T08:01:33.941Z,101175.35
2023-04-10T08:04:03.766Z,101175.70
2023-04-10T08:06:33.862Z,101172.36
2023-04-10T08:09:02.097Z,101170.42
2023-04-10T08:11:32.314Z,101168.63
2023-04-10T08:14:01.861Z,101165.05
2023-04-10T08:16:31.220Z,101165.25
2023-04-10T08:18:59.877Z,101160.42
2023-04-10T08:21:29.134Z,101158.67
2023-04-10T08:23:59.170Z,101158.98
2023-04-10T08:26:28.010Z,101162.27
2023-04-10T08:28:57.733Z,101156.66
2023-04-10T08:31:28.180Z,101159.96
2023-04-10T08:33:57.166Z,101157.97
2023-04-10T08:36:25.198Z,101155.06
2023-04-10T08:38:52.714Z,101153.92
2023-04-10T08:41:22.839Z,101148.05
2023-04-10T08:43:50.977Z,101144.78
2023-04-10T08:46:18.531Z,101144.09
2023-04-10T08:48:53.339Z,101146.56
2023-04-10T08:51:25.986Z,101140.90
2023-04-10T08:54:03.913Z,101140.17
2023-04-10T08:56:33.796Z,101137.33
2023-04-10T08:59:04.196Z,101135.13
2023-04-10T09:01:31.842Z,101132.20
2023-04-10T09:04:00.236Z,101126.92
2023-04-10T09:06:29.362Z,101123.02
2023-04-10T09:08:57.640Z,101122.13
2023-04-10T09:11:45.244Z,101119.54
2023-04-10T09:14:23.722Z,101119.02
2023-04-10T09:16:53.013Z,101122.00
2023-04-10T09:19:37.080Z,101119.40
2023-04-10T09:22:04.771Z,101115.16
2023-04-10T09:24:37.258Z,101109.69
2023-04-10T09:27:06.620Z,101106.36
2023-04-10T09:29:51.647Z,101105.25
2023-04-10T09:32:35.909Z,101102.51
2023-04-10T09:35:05.104Z,101096.38
2023-04-10T09:37:36.360Z,101091.04
2023-04-10T09:40:04.893Z,101089.96
2023-04-10T09:42:38.178Z,101084.34
2023-04-10T09:45:06.429Z,101084.80
2023-04-10T09:47:34.366Z,101079.31
2023-04-10T09:50:02.266Z,101075.69
2023-04-10T09:52:31.494Z,101071.45
2023-04-10T09:55:01.522Z,101067.10
2023-04-10T09:57:32.357Z,101068.79
2023-04-10T10:00:02.208Z,101060.91
2023-04-10T10:02:31.411Z,101060.29
2023-04-10T10:05:02.489Z,101060.41
2023-04-10T10:07:30.811Z,101054.54
2023-04-10T10:10:01.566Z,101053.07
2023-04-10T10:12:45.585Z,101052.17
2023-04-10T10:15:21.012Z,101052.00
2023-04-10T10:18:22.057Z,101043.27
2023-04-10T10:20:51.099Z,101039.22
2023-04-10T10:23:19.616Z,101034.10
2023-04-10T10:25:49.267Z,101032.85
2023-04-10T10:28:19.118Z,101033.05
2023-04-10T10:30:48.071Z,101027.67
2023-04-10T10:33:15.685Z,101028.10
2023-04-10T10:35:44.207Z,101025.69
2023-04-10T10:38:12.710Z,101027.58
2023-04-10T10:41:04.860Z,101025.80
2023-04-10T10:44:08.960Z,101021.96
2023-04-10T10:47:09.685Z,101017.64
2023-04-10T10:50:03.284Z,101014.12
2023-04-10T10:52:49.582Z,101010.48
2023-04-10T10:55:26.955Z,101010.83
2023-04-10T10:57:56.130Z,101013.87
2023-04-10T11:00:25.901Z,101010.88
2023-04-10T11:03:12.906Z,101006.48
2023-04-10T11:06:17.028Z,101005.38
2023-04-10T11:08:47.990Z,101004.33
2023-04-10T11:11:33.503Z,101000.30
2023-04-10T11:14:00.994Z,100998.20
2023-04-10T11:16:35.714Z,100998.36
2023-04-10T11:19:14.987Z,101000.09
2023-04-10T11:22:01.471Z,100995.23
2023-04-10T11:24:30.131Z,100994.04
2023-04-10T11:26:58.579Z,100988.84
2023-04-10T11:29:33.518Z,100982.91
2023-04-10T11:32:03.510Z,100983.40
2023-04-10T11:34:33.219Z,100983.20
2023-04-10T11:37:04.437Z,100980.47
2023-04-10T11:39:32.030Z,100974.69
2023-04-10T11:41:59.517Z,100974.19
2023-04-10T11:44:32.640Z,100969.42
2023-04-10T11:47:00.354Z,100965.16
2023-04-10T11:49:31.645Z,100961.34
2023-04-10T11:51:59.225Z,100963.64
2023-04-10T11:54:29.444Z,100963.71
2023-04-10T11:57:06.989Z,100961.73
2023-04-10T11:59:35.495Z,100963.83
2023-04-10T12:02:11.610Z,100959.85
2023-04-10T12:04:40.548Z,100957.43
2023-04-10T12:07:09.252Z,100957.15
2023-04-10T12:09:37.021Z,100955.58
2023-04-10T12:12:06.516Z,100953.33
2023-04-10T12:14:39.611Z,100955.33
2023-04-10T12:17:10.290Z,100954.16
2023-04-10T12:19:38.847Z,100953.79
2023-04-10T12:22:06.632Z,100950.35
2023-04-10T12:24:40.531Z,100949.47
2023-04-10T12:27:29.193Z,100948.50
2023-04-10T12:29:58.407Z,100946.74
2023-04-10T12:32:27.831Z,100947.08
2023-04-10T12:34:58.494Z,100941.04
2023-04-10T12:37:50.212Z,100936.77
2023-04-10T12:40:20.458Z,100936.25
2023-04-10T12:42:47.975Z,100936.00
2023-04-10T12:45:15.590Z,100937.11
2023-04-10T12:47:54.531Z,100937.53
2023-04-10T12:50:22.135Z,100930.48
2023-04-10T12:53:09.076Z,100927.27
2023-04-10T12:55:37.643Z,100923.90
2023-04-10T12:58:21.240Z,100920.02
2023-04-10T13:00:49.336Z,100915.33
2023-04-10T13:03:16.852Z,100916.13
2023-04-10T13:05:44.767Z,100913.35
2023-04-10T13:08:12.365Z,100913.88
2023-04-10T13:10:42.037Z,100908.19
2023-04-10T13:13:13.269Z,100908.31
2023-04-10T13:15:44.714Z,100902.61
2023-04-10T13:18:12.419Z,100900.02
2023-04-10T13:20:41.210Z,100899.20
2023-04-10T13:23:09.525Z,100899.60
2023-04-10T13:25:39.951Z,100896.42
2023-04-10T13:28:11.567Z,100893.05
2023-04-10T13:30:40.839Z,100887.91
2023-04-10T13:33:09.507Z,100885.13
2023-04-10T13:35:37.274Z,100878.48
2023-04-10T13:38:04.851Z,100878.86
2023-04-10T13:40:32.548Z,100873.81
2023-04-10T13:43:00.456Z,100872.61
2023-04-10T13:45:28.240Z,100872.25
2023-04-10T13:47:55.812Z,100871.38
2023-04-10T13:50:23.475Z,100870.81
2023-04-10T13:52:52.297Z,100861.97
2023-04-10T13:55:24.286Z,100864.99
2023-04-10T13:57:53.139Z,100859.92
2023-04-10T14:00:20.729Z,100859.95
2023-04-10T14:02:48.351Z,100854.42
2023-04-10T14:05:16.510Z,100852.00
2023-04-10T14:07:44.063Z,100848.46
2023-04-10T14:10:11.537Z,100844.10
2023-04-10T14:12:39.080Z,100845.56
2023-04-10T14:15:07.176Z,100848.01
2023-04-10T14:17:34.817Z,100845.19
2023-04-10T14:20:02.395Z,100843.29
2023-04-10T14:22:31.705Z,100842.67
2023-04-10T14:25:11.980Z,100837.85
2023-04-10T14:27:42.271Z,100833.61
2023-04-10T14:30:10.587Z,100831.70
2023-04-10T14:32:39.281Z,100824.22
2023-04-10T14:35:08.433Z,100822.49
2023-04-10T14:37:36.394Z,100819.40
2023-04-10T14:40:04.928Z,100816.36
2023-04-10T14:42:32.633Z,100814.61
2023-04-10T14:45:00.466Z,100808.23
2023-04-10T14:47:28.043Z,100809.14
2023-04-10T14:49:56.878Z,100806.65
2023-04-10T14:52:24.396Z,100804.19
2023-04-10T14:54:51.868Z,100800.04
2023-04-10T14:57:19.374Z,100800.00
2023-04-10T14:59:46.868Z,100799.67
2023-04-10T15:02:15.227Z,100798.45
2023-04-10T15:04:43.211Z,100795.54
2023-04-10T15:07:11.033Z,100794.08
2023-04-10T15:09:38.585Z,100793.27
2023-04-10T15:12:06.707Z,100791.48
2023-04-10T15:14:34.498Z,100783.20
2023-04-10T15:17:02.458Z,100781.20
2023-04-10T15:19:30.402Z,100773.89
2023-04-10T15:21:58.487Z,100774.39
2023-04-10T15:24:26.061Z,100774.78
2023-04-10T15:26:53.808Z,100771.44
2023-04-10T15:29:22.531Z,100764.52
2023-04-10T15:31:51.130Z,100765.22
2023-04-10T15:34:19.075Z,100762.71
2023-04-10T15:36:46.564Z,100756.06
2023-04-10T15:39:14.064Z,100754.98
2023-04-10T15:41:41.621Z,100755.59
2023-04-10T15:44:09.136Z,100748.95
2023-04-10T15:46:37.625Z,100749.20
2023-04-10T15:49:05.279Z,100741.88
2023-04-10T15:51:32.908Z,100735.39
2023-04-10T15:54:00.479Z,100730.76
2023-04-10T15:56:27.971Z,100729.92
2023-04-10T15:58:55.607Z,100724.59
2023-04-10T16:01:23.350Z,100726.27
2023-04-10T16:03:51.179Z,100724.85
2023-04-10T16:06:18.906Z,100718.69
2023-04-10T16:08:46.445Z,100718.52
2023-04-10T16:11:14.170Z,100717.87
2023-04-10T16:13:44.419Z,100716.20
2023-04-10T16:16:15.840Z,100717.65
2023-04-10T16:18:45.025Z,100717.40
2023-04-10T16:21:16.403Z,100708.55
2023-04-10T16:23:45.588Z,100705.34
2023-04-10T16:26:13.450Z,100700.17
2023-04-10T16:28:42.216Z,100697.20
2023-04-10T16:31:09.921Z,100695.78
2023-04-10T16:33:37.755Z,100694.20
2023-04-10T16:36:05.922Z,100691.73
2023-04-10T16:38:36.921Z,100686.36
2023-04-10T16:41:05.870Z,100683.86
2023-04-10T16:43:36.522Z,100682.11
2023-04-10T16:46:04.412Z,100678.34
2023-04-10T16:48:33.504Z,100676.20
2023-04-10T16:51:06.055Z,100674.27
2023-04-10T16:53:35.752Z,100668.09
2023-04-10T16:56:05.188Z,100666.75
2023-04-10T16:58:34.180Z,100663.19
2023-04-10T17:01:13.342Z,100659.44
2023-04-10T17:03:41.135Z,100659.10
2023-04-10T17:06:08.628Z,100658.69
2023-04-10T17:08:36.269Z,100657.12
2023-04-10T17:11:04.756Z,100658.54
2023-04-10T17:13:32.877Z,100653.83
2023-04-10T17:16:00.610Z,100651.99
2023-04-10T17:18:29.728Z,100656.96
2023-04-10T17:20:57.592Z,100656.60
2023-04-10T17:23:25.211Z,100656.46
2023-04-10T17:25:53.011Z,100657.42
2023-04-10T17:28:20.701Z,100657.94
2023-04-10T17:30:48.438Z,100662.00
2023-04-10T17:33:15.976Z,100665.15
2023-04-10T17:35:43.463Z,100658.92
2023-04-10T17:38:11.161Z,100666.38
2023-04-10T17:40:40.955Z,100664.77
2023-04-10T17:43:08.777Z,100662.88
2023-04-10T17:45:37.631Z,100661.68
2023-04-10T17:48:07.018Z,100663.78
2023-04-10T17:50:35.403Z,100666.26
2023-04-10T17:53:03.102Z,100664.88
2023-04-10T17:55:30.731Z,100665.85
2023-04-10T17:57:58.655Z,100666.32
2023-04-10T18:00:26.348Z,100669.45
2023-04-10T18:03:00.106Z,100675.00
2023-04-10T18:05:29.085Z,100673.88
2023-04-10T18:07:57.143Z,100670.35
2023-04-10T18:10:24.656Z,100670.55
2023-04-10T18:12:53.116Z,100672.31
2023-04-10T18:15:20.756Z,100674.52
2023-04-10T18:17:48.564Z,100674.07
2023-04-10T18:20:18.599Z,100672.89
2023-04-10T18:22:48.250Z,100674.61
2023-04-10T18:25:16.850Z,100676.29
2023-04-10T18:27:51.527Z,100675.51
2023-04-10T18:30:23.669Z,100678.71
2023-04-10T18:32:52.247Z,100678.90
2023-04-10T18:35:20.075Z,100677.85
2023-04-10T18:37:47.738Z,100682.54
2023-04-10T18:40:16.802Z,100677.64
2023-04-10T18:42:45.971Z,100677.55
2023-04-10T18:45:13.724Z,100672.77
2023-04-10T18:47:41.513Z,100676.83
2023-04-10T18:50:11.379Z,100676.55
2023-04-10T18:52:39.067Z,100675.05
2023-04-10T18:55:07.075Z,100675.41
2023-04-10T18:57:34.689Z,100675.95
2023-04-10T19:00:04.435Z,100675.78
2023-04-10T19:02:32.118Z,100670.38
2023-04-10T19:05:00.071Z,100673.85
2023-04-10T19:07:27.678Z,100669.84
2023-04-10T19:09:55.241Z,100671.73
2023-04-10T19:12:23.394Z,100669.98
2023-04-10T19:14:50.911Z,100665.92
2023-04-10T19:17:21.845Z,100663.96
2023-04-10T19:19:49.564Z,100665.65
2023-04-10T19:22:17.410Z,100662.45
2023-04-10T19:24:45.161Z,100662.22
2023-04-10T19:27:12.983Z,100660.23
2023-04-10T19:29:40.567Z,100659.45
2023-04-10T19:32:09.864Z,100657.11
2023-04-10T19:34:37.350Z,100661.19
2023-04-10T19:37:04.824Z,100658.33
2023-04-10T19:39:32.581Z,100652.34
2023-04-10T19:42:00.370Z,100651.02
2023-04-10T19:44:27.858Z,100651.27
2023-04-10T19:46:55.383Z,100650.14
2023-04-10T19:49:23.263Z,100651.27
2023-04-10T19:51:50.878Z,100647.34
2023-04-10T19:54:18.604Z,100643.95
2023-04-10T19:56:46.101Z,100641.39
2023-04-10T19:59:13.866Z,100641.80
2023-04-10T20:01:41.619Z,100637.52
2023-04-10T20:04:09.152Z,100634.10
2023-04-10T20:06:36.846Z,100627.38
2023-04-10T20:09:04.343Z,100625.54
2023-04-10T20:11:31.856Z,100618.33
2023-04-10T20:14:00.112Z,100617.38
2023-04-10T20:16:27.708Z,100620.92
2023-04-10T20:18:55.817Z,100622.19
2023-04-10T20:21:23.591Z,100620.84
2023-04-10T20:23:51.974Z,100617.23
2023-04-10T20:26:19.822Z,100616.02
2023-04-10T20:28:47.278Z,100614.14
2023-04-10T20:31:15.214Z,100608.80
2023-04-10T20:33:42.868Z,100610.75
2023-04-10T20:36:10.805Z,100609.58
2023-04-10T20:38:40.584Z,100609.59
2023-04-10T20:41:08.151Z,100607.52
2023-04-10T20:43:35.792Z,100602.17
2023-04-10T20:46:05.010Z,100602.36
2023-04-10T20:48:32.553Z,100596.48
2023-04-10T20:51:00.129Z,100596.34
2023-04-10T20:53:29.266Z,100595.67
2023-04-10T20:55:56.919Z,100594.82
2023-04-10T20:58:24.449Z,100593.29
2023-04-10T21:00:53.195Z,100592.61
2023-04-10T21:03:21.604Z,100592.96
2023-04-10T21:05:50.323Z,100583.78
2023-04-10T21:08:19.710Z,100581.04
2023-04-10T21:10:47.303Z,100581.59
2023-04-10T21:13:15.507Z,100576.40
2023-04-10T21:15:43.642Z,100572.98
2023-04-10T21:18:11.198Z,100572.29
2023-04-10T21:20:38.801Z,100573.52
2023-04-10T21:23:06.372Z,100569.73
2023-04-10T21:25:35.750Z,100572.16
2023-04-10T21:28:03.356Z,100571.16
2023-04-10T21:30:30.930Z,100565.45
2023-04-10T21:32:58.811Z,100562.69
2023-04-10T21:35:27.130Z,100562.03
2023-04-10T21:37:57.592Z,100558.94
2023-04-10T21:40:29.895Z,100556.71
2023-04-10T21:42:57.349Z,100551.20
2023-04-10T21:45:24.796Z,100545.84
2023-04-10T21:47:52.664Z,100542.75
2023-04-10T21:50:20.456Z,100540.52
2023-04-10T21:52:49.350Z,100541.75
2023-04-10T21:55:17.289Z,100538.48
2023-04-10T21:57:44.839Z,100536.05
2023-04-10T22:00:13.762Z,100537.81
2023-04-10T22:02:41.496Z,100538.17
2023-04-10T22:05:09.365Z,100539.56
2023-04-10T22:07:37.301Z,100538.20
2023-04-10T22:10:05.266Z,100538.02
2023-04-10T22:12:33.119Z,100533.54
2023-04-10T22:15:00.690Z,100534.06
2023-04-10T22:17:28.232Z,100530.11
2023-04-10T22:19:56.698Z,100531.16
2023-04-10T22:22:24.230Z,100529.97
2023-04-10T22:24:51.737Z,100523.94
2023-04-10T22:27:19.336Z,100520.14
2023-04-10T22:29:56.191Z,100516.16
2023-04-10T22:32:30.326Z,100516.18
2023-04-10T22:35:00.984Z,100513.60
2023-04-10T22:37:28.454Z,100510.48
2023-04-10T22:39:57.284Z,100507.73
2023-04-10T22:42:24.706Z,100501.00
2023-04-10T22:44:54.764Z,100499.64
2023-04-10T22:47:22.408Z,100493.06
2023-04-10T22:49:50.552Z,100491.36
2023-04-10T22:52:17.963Z,100489.30
2023-04-10T22:54:45.863Z,100487.58
2023-04-10T22:57:13.378Z,100484.13
2023-04-10T22:59:40.859Z,100484.31
2023-04-10T23:02:08.501Z,100479.31
2023-04-10T23:04:36.618Z,100473.27
2023-04-10T23:07:07.387Z,100470.52
2023-04-10T23:09:34.850Z,100466.73
2023-04-10T23:12:02.349Z,100464.30
2023-04-10T23:14:30.434Z,100458.60
2023-04-10T23:16:57.952Z,100455.86
2023-04-10T23:19:25.548Z,100452.58
2023-04-10T23:21:53.660Z,100449.46
2023-04-10T23:24:21.380Z,100445.31
2023-04-10T23:26:48.977Z,100442.55
2023-04-10T23:29:16.522Z,100438.59
2023-04-10T23:31:44.061Z,100430.97
2023-04-10T23:34:11.707Z,100429.42
2023-04-10T23:36:39.220Z,100422.52
2023-04-10T23:39:06.864Z,100417.86
2023-04-10T23:41:34.382Z,100413.21
2023-04-10T23:44:01.857Z,100411.32
2023-04-10T23:46:29.767Z,100410.13
2023-04-10T23:48:57.366Z,100403.73
2023-04-10T23:51:24.826Z,100399.26
2023-04-10T23:53:52.540Z,100398.40
2023-04-10T23:56:21.086Z,100392.87
2023-04-10T23:58:48.568Z,100392.02
